Melville, North Dakota
Current Conditions -  °F | °C
As of 12:55 PM on Monday 20 Oct 2014 (Local Time) from K46D Reporting Station
Clear Clear  
Wind Chill: 64°   Ceiling: Unl
Heat Index: 64°   Visibility: 10mi
Dew Point: 37°   Wind: 6mph
Humidity: 37%   Direction: 140°SE
Pressure: 30.05"   Gusts: NA
Location:  47.4573°N, 99.0752°W
Report Text: K46D 201755Z AUTO 14005KT 10SM CLR 18/03 A3005 RMK AO2
Loading
Personal Weather Stations






























Interactive Weather Map
Tropical Storm Tracking
New forecast layout! Learn more

10-Day Weather Forecast

Advertisements
Track Severe Weather on mobile